Terminal Aerodrome Forecast
Issued by NWS

Home | Current Version | Previous Version | Text Only | Print | Product List | Glossary On
Versions: 1 2 3 4 5 6 7 8 9 10 11 12 13 14 15 16 17 18 19 20 21 22 23 24 25 26 27 28 29 30
000
FTUS44 KOHX 172320
TAFCKV
TAF
KCKV 172320Z 1800/1824 21006KT P6SM FEW040 SCT060 BKN070
      TEMPO 1800/1802 4SM -SHRA OVC035
     FM181800 28007KT P6SM SKC=

USA.gov is the U.S. government's official web portal to all federal, state and local government web resources and services.